sensor_id;sensor_type;location;lat;lon;timestamp;pressure;altitude;pressure_sealevel;temperature;humidity
35989;BME280;22064;42.672;23.282;2023-08-20T00:02:08;94933.38;;;21.66;100.00
35989;BME280;22064;42.672;23.282;2023-08-20T00:04:37;94927.91;;;21.63;100.00
35989;BME280;22064;42.672;23.282;2023-08-20T00:07:05;94917.63;;;21.61;100.00
35989;BME280;22064;42.672;23.282;2023-08-20T00:09:35;94914.34;;;21.56;100.00
35989;BME280;22064;42.672;23.282;2023-08-20T00:12:03;94926.03;;;21.63;100.00
35989;BME280;22064;42.672;23.282;2023-08-20T00:14:53;94919.22;;;21.71;100.00
35989;BME280;22064;42.672;23.282;2023-08-20T00:17:21;94921.25;;;21.74;100.00
35989;BME280;22064;42.672;23.282;2023-08-20T00:19:53;94915.00;;;21.70;100.00
35989;BME280;22064;42.672;23.282;2023-08-20T00:22:23;94924.72;;;21.75;100.00
35989;BME280;22064;42.672;23.282;2023-08-20T00:24:53;94923.91;;;21.74;100.00
35989;BME280;22064;42.672;23.282;2023-08-20T00:27:21;94921.88;;;21.71;100.00
35989;BME280;22064;42.672;23.282;2023-08-20T00:29:49;94926.09;;;21.72;100.00
35989;BME280;22064;42.672;23.282;2023-08-20T00:32:16;94919.53;;;21.70;100.00
35989;BME280;22064;42.672;23.282;2023-08-20T00:34:43;94925.00;;;21.73;100.00
35989;BME280;22064;42.672;23.282;2023-08-20T00:37:16;94920.66;;;21.77;100.00
35989;BME280;22064;42.672;23.282;2023-08-20T00:39:49;94908.50;;;21.76;100.00
35989;BME280;22064;42.672;23.282;2023-08-20T00:42:16;94912.34;;;21.70;100.00
35989;BME280;22064;42.672;23.282;2023-08-20T00:44:43;94908.38;;;21.81;100.00
35989;BME280;22064;42.672;23.282;2023-08-20T00:47:16;94914.72;;;21.80;100.00
35989;BME280;22064;42.672;23.282;2023-08-20T00:49:45;94918.81;;;21.86;100.00
35989;BME280;22064;42.672;23.282;2023-08-20T00:52:14;94924.13;;;21.86;100.00
35989;BME280;22064;42.672;23.282;2023-08-20T00:54:44;94915.88;;;21.88;100.00
35989;BME280;22064;42.672;23.282;2023-08-20T00:57:13;94912.13;;;21.89;100.00
35989;BME280;22064;42.672;23.282;2023-08-20T00:59:41;94911.66;;;21.87;100.00
35989;BME280;22064;42.672;23.282;2023-08-20T01:02:08;94911.97;;;21.85;100.00
35989;BME280;22064;42.672;23.282;2023-08-20T01:04:35;94913.50;;;21.86;100.00
35989;BME280;22064;42.672;23.282;2023-08-20T01:09:54;94921.16;;;21.88;100.00
35989;BME280;22064;42.672;23.282;2023-08-20T01:12:26;94917.09;;;21.82;100.00
35989;BME280;22064;42.672;23.282;2023-08-20T01:14:52;94906.50;;;21.82;100.00
35989;BME280;22064;42.672;23.282;2023-08-20T01:17:24;94924.88;;;21.78;100.00
35989;BME280;22064;42.672;23.282;2023-08-20T01:19:57;94925.50;;;21.75;100.00
35989;BME280;22064;42.672;23.282;2023-08-20T01:25:32;94914.06;;;21.66;100.00
35989;BME280;22064;42.672;23.282;2023-08-20T01:28:28;94906.56;;;21.59;100.00
35989;BME280;22064;42.672;23.282;2023-08-20T01:30:58;94912.63;;;21.60;100.00
35989;BME280;22064;42.672;23.282;2023-08-20T01:33:25;94901.31;;;21.45;100.00
35989;BME280;22064;42.672;23.282;2023-08-20T01:35:55;94906.78;;;21.40;100.00
35989;BME280;22064;42.672;23.282;2023-08-20T01:38:22;94901.47;;;21.40;100.00
35989;BME280;22064;42.672;23.282;2023-08-20T01:40:52;94902.25;;;21.41;100.00
35989;BME280;22064;42.672;23.282;2023-08-20T01:43:20;94905.19;;;21.39;100.00
35989;BME280;22064;42.672;23.282;2023-08-20T01:45:47;94913.63;;;21.41;100.00
35989;BME280;22064;42.672;23.282;2023-08-20T01:48:14;94901.38;;;21.32;100.00
35989;BME280;22064;42.672;23.282;2023-08-20T01:50:43;94895.97;;;21.37;100.00
35989;BME280;22064;42.672;23.282;2023-08-20T01:53:12;94899.34;;;21.29;100.00
35989;BME280;22064;42.672;23.282;2023-08-20T01:55:42;94890.63;;;21.28;100.00
35989;BME280;22064;42.672;23.282;2023-08-20T01:58:09;94898.06;;;21.26;100.00
35989;BME280;22064;42.672;23.282;2023-08-20T02:00:36;94902.66;;;21.34;100.00
35989;BME280;22064;42.672;23.282;2023-08-20T02:03:04;94892.56;;;21.36;100.00
35989;BME280;22064;42.672;23.282;2023-08-20T02:05:32;94881.84;;;21.41;100.00
35989;BME280;22064;42.672;23.282;2023-08-20T02:07:59;94899.84;;;21.62;100.00
35989;BME280;22064;42.672;23.282;2023-08-20T02:10:31;94888.25;;;21.49;100.00
35989;BME280;22064;42.672;23.282;2023-08-20T02:12:58;94894.19;;;21.55;100.00
35989;BME280;22064;42.672;23.282;2023-08-20T02:15:24;94874.88;;;21.54;100.00
35989;BME280;22064;42.672;23.282;2023-08-20T02:17:56;94882.94;;;21.49;100.00
35989;BME280;22064;42.672;23.282;2023-08-20T02:20:22;94877.56;;;21.63;100.00
35989;BME280;22064;42.672;23.282;2023-08-20T02:22:49;94875.38;;;21.65;100.00
35989;BME280;22064;42.672;23.282;2023-08-20T02:25:16;94880.50;;;21.61;100.00
35989;BME280;22064;42.672;23.282;2023-08-20T02:27:43;94890.78;;;21.54;100.00
35989;BME280;22064;42.672;23.282;2023-08-20T02:30:11;94896.34;;;21.44;100.00
35989;BME280;22064;42.672;23.282;2023-08-20T02:32:39;94886.09;;;21.51;100.00
35989;BME280;22064;42.672;23.282;2023-08-20T02:35:07;94885.00;;;21.52;100.00
35989;BME280;22064;42.672;23.282;2023-08-20T02:37:40;94888.09;;;21.45;100.00
35989;BME280;22064;42.672;23.282;2023-08-20T02:40:11;94894.66;;;21.26;100.00
35989;BME280;22064;42.672;23.282;2023-08-20T02:42:41;94887.78;;;21.02;100.00
35989;BME280;22064;42.672;23.282;2023-08-20T02:45:08;94891.03;;;20.99;100.00
35989;BME280;22064;42.672;23.282;2023-08-20T02:47:36;94909.28;;;20.78;100.00
35989;BME280;22064;42.672;23.282;2023-08-20T02:50:03;94905.50;;;20.43;100.00
35989;BME280;22064;42.672;23.282;2023-08-20T02:52:32;94900.06;;;20.25;100.00
35989;BME280;22064;42.672;23.282;2023-08-20T02:54:59;94906.31;;;20.29;100.00
35989;BME280;22064;42.672;23.282;2023-08-20T02:57:26;94900.66;;;20.08;100.00
35989;BME280;22064;42.672;23.282;2023-08-20T02:59:53;94908.69;;;20.17;100.00
35989;BME280;22064;42.672;23.282;2023-08-20T03:02:19;94908.47;;;20.27;100.00
35989;BME280;22064;42.672;23.282;2023-08-20T03:04:48;94917.44;;;20.40;100.00
35989;BME280;22064;42.672;23.282;2023-08-20T03:07:17;94911.69;;;20.38;100.00
35989;BME280;22064;42.672;23.282;2023-08-20T03:09:43;94918.84;;;20.38;100.00
35989;BME280;22064;42.672;23.282;2023-08-20T03:12:10;94913.94;;;20.31;100.00
35989;BME280;22064;42.672;23.282;2023-08-20T03:14:42;94922.00;;;20.12;100.00
35989;BME280;22064;42.672;23.282;2023-08-20T03:17:12;94912.22;;;20.13;100.00
35989;BME280;22064;42.672;23.282;2023-08-20T03:19:54;94916.41;;;20.27;100.00
35989;BME280;22064;42.672;23.282;2023-08-20T03:22:24;94904.75;;;20.28;100.00
35989;BME280;22064;42.672;23.282;2023-08-20T03:24:52;94906.50;;;20.33;100.00
35989;BME280;22064;42.672;23.282;2023-08-20T03:27:19;94917.56;;;20.35;100.00
35989;BME280;22064;42.672;23.282;2023-08-20T03:29:46;94905.84;;;20.14;100.00
35989;BME280;22064;42.672;23.282;2023-08-20T03:32:13;94910.84;;;20.01;100.00
35989;BME280;22064;42.672;23.282;2023-08-20T03:34:40;94913.50;;;19.88;100.00
35989;BME280;22064;42.672;23.282;2023-08-20T03:37:06;94903.75;;;19.55;100.00
35989;BME280;22064;42.672;23.282;2023-08-20T03:39:34;94897.25;;;19.34;100.00
35989;BME280;22064;42.672;23.282;2023-08-20T03:42:01;94891.94;;;19.20;100.00
35989;BME280;22064;42.672;23.282;2023-08-20T03:44:28;94890.47;;;19.14;100.00
35989;BME280;22064;42.672;23.282;2023-08-20T03:46:56;94904.25;;;19.25;100.00
35989;BME280;22064;42.672;23.282;2023-08-20T03:49:25;94876.88;;;19.21;100.00
35989;BME280;22064;42.672;23.282;2023-08-20T03:51:54;94904.59;;;19.37;100.00
35989;BME280;22064;42.672;23.282;2023-08-20T03:54:21;94906.31;;;19.28;100.00
35989;BME280;22064;42.672;23.282;2023-08-20T03:56:51;94890.38;;;19.19;100.00
35989;BME280;22064;42.672;23.282;2023-08-20T03:59:18;94892.53;;;19.17;100.00
35989;BME280;22064;42.672;23.282;2023-08-20T04:01:45;94871.06;;;19.05;100.00
35989;BME280;22064;42.672;23.282;2023-08-20T04:04:12;94885.72;;;19.30;100.00
35989;BME280;22064;42.672;23.282;2023-08-20T04:06:38;94889.84;;;19.50;100.00
35989;BME280;22064;42.672;23.282;2023-08-20T04:09:07;94887.59;;;19.43;100.00
35989;BME280;22064;42.672;23.282;2023-08-20T04:11:36;94891.03;;;19.57;100.00
35989;BME280;22064;42.672;23.282;2023-08-20T04:14:09;94896.84;;;19.73;100.00
35989;BME280;22064;42.672;23.282;2023-08-20T04:16:36;94895.25;;;20.00;100.00
35989;BME280;22064;42.672;23.282;2023-08-20T04:19:04;94897.69;;;20.24;100.00
35989;BME280;22064;42.672;23.282;2023-08-20T04:21:37;94891.03;;;20.26;100.00
35989;BME280;22064;42.672;23.282;2023-08-20T04:24:05;94894.94;;;20.57;100.00
35989;BME280;22064;42.672;23.282;2023-08-20T04:26:33;94898.34;;;20.57;100.00
35989;BME280;22064;42.672;23.282;2023-08-20T04:29:01;94898.69;;;20.28;100.00
35989;BME280;22064;42.672;23.282;2023-08-20T04:31:29;94902.41;;;19.99;100.00
35989;BME280;22064;42.672;23.282;2023-08-20T04:34:03;94894.19;;;19.87;100.00
35989;BME280;22064;42.672;23.282;2023-08-20T04:36:51;94900.50;;;19.58;100.00
35989;BME280;22064;42.672;23.282;2023-08-20T04:39:24;94908.34;;;19.64;100.00
35989;BME280;22064;42.672;23.282;2023-08-20T04:41:56;94901.25;;;19.64;100.00
35989;BME280;22064;42.672;23.282;2023-08-20T04:44:25;94903.03;;;19.82;100.00
35989;BME280;22064;42.672;23.282;2023-08-20T04:46:55;94903.78;;;19.83;100.00
35989;BME280;22064;42.672;23.282;2023-08-20T04:49:24;94902.25;;;19.82;100.00
35989;BME280;22064;42.672;23.282;2023-08-20T04:51:54;94900.47;;;19.77;100.00
35989;BME280;22064;42.672;23.282;2023-08-20T04:54:22;94883.72;;;20.10;100.00
35989;BME280;22064;42.672;23.282;2023-08-20T04:56:54;94901.13;;;20.38;100.00
35989;BME280;22064;42.672;23.282;2023-08-20T04:59:22;94908.59;;;20.22;100.00
35989;BME280;22064;42.672;23.282;2023-08-20T05:01:52;94909.19;;;20.19;100.00
35989;BME280;22064;42.672;23.282;2023-08-20T05:04:38;94910.91;;;20.24;100.00
35989;BME280;22064;42.672;23.282;2023-08-20T05:07:10;94916.59;;;20.31;100.00
35989;BME280;22064;42.672;23.282;2023-08-20T05:09:38;94913.56;;;20.38;100.00
35989;BME280;22064;42.672;23.282;2023-08-20T05:12:05;94908.81;;;20.62;100.00
35989;BME280;22064;42.672;23.282;2023-08-20T05:14:34;94917.09;;;20.83;100.00
35989;BME280;22064;42.672;23.282;2023-08-20T05:17:07;94915.78;;;20.94;100.00
35989;BME280;22064;42.672;23.282;2023-08-20T05:19:34;94919.53;;;20.93;100.00
35989;BME280;22064;42.672;23.282;2023-08-20T05:22:01;94922.78;;;21.13;100.00
35989;BME280;22064;42.672;23.282;2023-08-20T05:24:31;94923.50;;;21.50;100.00
35989;BME280;22064;42.672;23.282;2023-08-20T05:27:14;94925.34;;;22.20;100.00
35989;BME280;22064;42.672;23.282;2023-08-20T05:29:43;94907.88;;;22.19;100.00
35989;BME280;22064;42.672;23.282;2023-08-20T05:32:15;94924.81;;;22.01;100.00
35989;BME280;22064;42.672;23.282;2023-08-20T05:34:42;94915.94;;;22.14;100.00
35989;BME280;22064;42.672;23.282;2023-08-20T05:37:10;94920.13;;;22.72;100.00
35989;BME280;22064;42.672;23.282;2023-08-20T05:39:42;94914.38;;;23.05;100.00
35989;BME280;22064;42.672;23.282;2023-08-20T05:42:10;94927.31;;;23.41;100.00
35989;BME280;22064;42.672;23.282;2023-08-20T05:44:41;94919.31;;;23.50;100.00
35989;BME280;22064;42.672;23.282;2023-08-20T05:47:15;94928.09;;;23.97;100.00
35989;BME280;22064;42.672;23.282;2023-08-20T05:49:42;94926.91;;;23.86;100.00
35989;BME280;22064;42.672;23.282;2023-08-20T05:52:10;94932.94;;;23.95;100.00
35989;BME280;22064;42.672;23.282;2023-08-20T05:54:37;94924.00;;;24.09;100.00
35989;BME280;22064;42.672;23.282;2023-08-20T05:57:05;94913.13;;;24.23;100.00
35989;BME280;22064;42.672;23.282;2023-08-20T05:59:32;94926.97;;;24.37;100.00
35989;BME280;22064;42.672;23.282;2023-08-20T06:02:01;94931.19;;;24.38;100.00
35989;BME280;22064;42.672;23.282;2023-08-20T06:04:33;94919.22;;;24.53;100.00
35989;BME280;22064;42.672;23.282;2023-08-20T06:07:01;94922.16;;;24.60;100.00
35989;BME280;22064;42.672;23.282;2023-08-20T06:09:28;94919.44;;;24.69;100.00
35989;BME280;22064;42.672;23.282;2023-08-20T06:11:55;94930.09;;;24.89;100.00
35989;BME280;22064;42.672;23.282;2023-08-20T06:14:28;94934.25;;;24.99;100.00
35989;BME280;22064;42.672;23.282;2023-08-20T06:16:55;94923.72;;;25.24;100.00
35989;BME280;22064;42.672;23.282;2023-08-20T06:19:25;94934.22;;;25.41;100.00
35989;BME280;22064;42.672;23.282;2023-08-20T06:21:52;94932.47;;;25.57;95.39
35989;BME280;22064;42.672;23.282;2023-08-20T06:24:20;94925.53;;;25.77;93.06
35989;BME280;22064;42.672;23.282;2023-08-20T06:26:47;94939.69;;;25.90;91.96
35989;BME280;22064;42.672;23.282;2023-08-20T06:29:17;94931.69;;;25.90;91.99
35989;BME280;22064;42.672;23.282;2023-08-20T06:31:46;94940.34;;;25.87;90.71
35989;BME280;22064;42.672;23.282;2023-08-20T06:34:14;94927.69;;;25.96;85.78
35989;BME280;22064;42.672;23.282;2023-08-20T06:36:41;94938.03;;;26.22;84.30
35989;BME280;22064;42.672;23.282;2023-08-20T06:39:09;94935.69;;;26.33;84.45
35989;BME280;22064;42.672;23.282;2023-08-20T06:41:41;94934.25;;;26.48;83.50
35989;BME280;22064;42.672;23.282;2023-08-20T06:44:18;94939.03;;;26.42;81.79
35989;BME280;22064;42.672;23.282;2023-08-20T06:46:49;94939.28;;;26.49;82.71
35989;BME280;22064;42.672;23.282;2023-08-20T06:49:19;94926.78;;;26.66;80.85
35989;BME280;22064;42.672;23.282;2023-08-20T06:51:49;94917.94;;;26.90;80.07
35989;BME280;22064;42.672;23.282;2023-08-20T06:54:17;94918.00;;;27.06;78.81
35989;BME280;22064;42.672;23.282;2023-08-20T06:56:47;94934.88;;;27.10;76.97
35989;BME280;22064;42.672;23.282;2023-08-20T06:59:14;94923.50;;;26.85;74.44
35989;BME280;22064;42.672;23.282;2023-08-20T07:01:41;94938.34;;;26.82;74.96
35989;BME280;22064;42.672;23.282;2023-08-20T07:04:08;94928.44;;;26.70;75.43
35989;BME280;22064;42.672;23.282;2023-08-20T07:06:35;94940.56;;;26.80;77.95
35989;BME280;22064;42.672;23.282;2023-08-20T07:09:02;94917.97;;;26.78;77.19
35989;BME280;22064;42.672;23.282;2023-08-20T07:11:30;94929.06;;;26.92;73.91
35989;BME280;22064;42.672;23.282;2023-08-20T07:13:58;94940.75;;;26.87;68.96
35989;BME280;22064;42.672;23.282;2023-08-20T07:16:25;94914.69;;;26.97;67.77
35989;BME280;22064;42.672;23.282;2023-08-20T07:18:53;94929.28;;;27.27;66.62
35989;BME280;22064;42.672;23.282;2023-08-20T07:21:20;94926.66;;;27.43;63.85
35989;BME280;22064;42.672;23.282;2023-08-20T07:23:47;94926.16;;;27.53;62.06
35989;BME280;22064;42.672;23.282;2023-08-20T07:26:13;94937.81;;;27.61;61.50
35989;BME280;22064;42.672;23.282;2023-08-20T07:28:41;94933.84;;;27.55;60.14
35989;BME280;22064;42.672;23.282;2023-08-20T07:31:24;94937.06;;;27.76;58.96
35989;BME280;22064;42.672;23.282;2023-08-20T07:33:52;94934.47;;;27.64;58.04
35989;BME280;22064;42.672;23.282;2023-08-20T07:36:19;94935.09;;;27.73;59.35
35989;BME280;22064;42.672;23.282;2023-08-20T07:38:49;94935.16;;;27.61;58.21
35989;BME280;22064;42.672;23.282;2023-08-20T07:41:15;94942.19;;;27.53;58.63
35989;BME280;22064;42.672;23.282;2023-08-20T07:43:43;94938.91;;;27.44;59.52
35989;BME280;22064;42.672;23.282;2023-08-20T07:46:11;94950.41;;;27.45;60.42
35989;BME280;22064;42.672;23.282;2023-08-20T07:48:42;94921.50;;;27.22;61.49
35989;BME280;22064;42.672;23.282;2023-08-20T07:51:08;94947.28;;;27.43;62.07
35989;BME280;22064;42.672;23.282;2023-08-20T07:53:35;94940.19;;;27.34;60.55
35989;BME280;22064;42.672;23.282;2023-08-20T07:56:03;94950.00;;;27.30;59.20
35989;BME280;22064;42.672;23.282;2023-08-20T07:58:31;94932.88;;;27.47;59.03
35989;BME280;22064;42.672;23.282;2023-08-20T08:00:59;94940.22;;;27.66;57.92
35989;BME280;22064;42.672;23.282;2023-08-20T08:03:29;94943.53;;;27.75;55.70
35989;BME280;22064;42.672;23.282;2023-08-20T08:06:02;94942.53;;;27.96;56.11
35989;BME280;22064;42.672;23.282;2023-08-20T08:08:29;94939.09;;;28.11;54.92
35989;BME280;22064;42.672;23.282;2023-08-20T08:10:56;94934.56;;;28.47;54.02
35989;BME280;22064;42.672;23.282;2023-08-20T08:13:23;94933.09;;;28.49;51.50
35989;BME280;22064;42.672;23.282;2023-08-20T08:15:53;94938.81;;;28.48;50.22
35989;BME280;22064;42.672;23.282;2023-08-20T08:18:25;94937.63;;;28.45;50.17
35989;BME280;22064;42.672;23.282;2023-08-20T08:20:52;94937.00;;;28.36;50.25
35989;BME280;22064;42.672;23.282;2023-08-20T08:23:18;94937.31;;;28.50;49.33
35989;BME280;22064;42.672;23.282;2023-08-20T08:25:45;94933.03;;;28.46;48.23
35989;BME280;22064;42.672;23.282;2023-08-20T08:28:10;94941.94;;;28.18;48.15
35989;BME280;22064;42.672;23.282;2023-08-20T08:30:38;94938.13;;;28.19;48.25
35989;BME280;22064;42.672;23.282;2023-08-20T08:33:05;94927.16;;;28.24;48.79
35989;BME280;22064;42.672;23.282;2023-08-20T08:35:36;94937.31;;;28.50;48.58
35989;BME280;22064;42.672;23.282;2023-08-20T08:38:03;94925.19;;;28.72;48.12
35989;BME280;22064;42.672;23.282;2023-08-20T08:40:31;94932.19;;;28.96;46.49
35989;BME280;22064;42.672;23.282;2023-08-20T08:43:01;94934.88;;;28.96;45.51
35989;BME280;22064;42.672;23.282;2023-08-20T08:45:30;94921.88;;;28.79;45.48
35989;BME280;22064;42.672;23.282;2023-08-20T08:47:57;94932.56;;;28.95;45.45
35989;BME280;22064;42.672;23.282;2023-08-20T08:50:31;94933.75;;;28.97;44.70
35989;BME280;22064;42.672;23.282;2023-08-20T08:52:59;94932.72;;;29.02;42.21
35989;BME280;22064;42.672;23.282;2023-08-20T08:55:26;94940.56;;;29.11;41.47
35989;BME280;22064;42.672;23.282;2023-08-20T08:57:52;94932.84;;;29.09;40.43
35989;BME280;22064;42.672;23.282;2023-08-20T09:00:22;94940.16;;;28.93;41.09
35989;BME280;22064;42.672;23.282;2023-08-20T09:02:54;94924.72;;;28.86;41.66
35989;BME280;22064;42.672;23.282;2023-08-20T09:05:23;94937.75;;;28.88;42.20
35989;BME280;22064;42.672;23.282;2023-08-20T09:07:59;94924.00;;;28.89;42.36
35989;BME280;22064;42.672;23.282;2023-08-20T09:10:28;94928.50;;;29.01;41.72
35989;BME280;22064;42.672;23.282;2023-08-20T09:12:56;94934.66;;;28.86;40.99
35989;BME280;22064;42.672;23.282;2023-08-20T09:15:32;94928.41;;;29.36;40.57
35989;BME280;22064;42.672;23.282;2023-08-20T09:18:02;94938.22;;;29.48;40.07
35989;BME280;22064;42.672;23.282;2023-08-20T09:20:37;94926.69;;;29.48;39.98
35989;BME280;22064;42.672;23.282;2023-08-20T09:23:11;94931.81;;;29.56;39.97
35989;BME280;22064;42.672;23.282;2023-08-20T09:25:42;94935.16;;;29.69;39.87
35989;BME280;22064;42.672;23.282;2023-08-20T09:28:11;94928.00;;;29.77;40.26
35989;BME280;22064;42.672;23.282;2023-08-20T09:30:54;94934.97;;;30.04;39.68
35989;BME280;22064;42.672;23.282;2023-08-20T09:33:22;94924.13;;;29.74;39.25
35989;BME280;22064;42.672;23.282;2023-08-20T09:35:50;94935.56;;;29.71;39.85
35989;BME280;22064;42.672;23.282;2023-08-20T09:38:21;94931.13;;;29.79;39.10
35989;BME280;22064;42.672;23.282;2023-08-20T09:40:55;94929.38;;;29.90;38.77
35989;BME280;22064;42.672;23.282;2023-08-20T09:43:30;94903.91;;;30.03;38.22
35989;BME280;22064;42.672;23.282;2023-08-20T09:46:04;94915.03;;;30.05;37.27
35989;BME280;22064;42.672;23.282;2023-08-20T09:48:35;94922.25;;;29.78;37.11
35989;BME280;22064;42.672;23.282;2023-08-20T09:51:28;94922.41;;;29.85;37.42
35989;BME280;22064;42.672;23.282;2023-08-20T09:54:20;94916.25;;;30.08;36.97
35989;BME280;22064;42.672;23.282;2023-08-20T09:56:58;94913.25;;;29.90;37.31
35989;BME280;22064;42.672;23.282;2023-08-20T09:59:37;94919.06;;;29.92;37.59
35989;BME280;22064;42.672;23.282;2023-08-20T10:02:13;94917.53;;;30.18;37.36
35989;BME280;22064;42.672;23.282;2023-08-20T10:04:47;94908.97;;;30.31;37.44
35989;BME280;22064;42.672;23.282;2023-08-20T10:07:25;94926.00;;;30.43;37.17
35989;BME280;22064;42.672;23.282;2023-08-20T10:10:16;94925.13;;;30.35;37.06
35989;BME280;22064;42.672;23.282;2023-08-20T10:12:45;94915.03;;;30.55;35.91
35989;BME280;22064;42.672;23.282;2023-08-20T10:15:13;94919.91;;;30.46;35.59
35989;BME280;22064;42.672;23.282;2023-08-20T10:17:44;94910.69;;;30.47;35.80
35989;BME280;22064;42.672;23.282;2023-08-20T10:20:20;94928.13;;;30.30;35.83
35989;BME280;22064;42.672;23.282;2023-08-20T10:22:50;94916.19;;;30.27;36.48
35989;BME280;22064;42.672;23.282;2023-08-20T10:25:23;94917.00;;;30.58;36.60
35989;BME280;22064;42.672;23.282;2023-08-20T10:28:12;94921.44;;;30.47;35.83
35989;BME280;22064;42.672;23.282;2023-08-20T10:31:13;94921.53;;;30.50;35.60
35989;BME280;22064;42.672;23.282;2023-08-20T10:33:54;94914.63;;;30.53;35.29
35989;BME280;22064;42.672;23.282;2023-08-20T10:36:28;94916.69;;;30.36;35.80
35989;BME280;22064;42.672;23.282;2023-08-20T10:39:27;94915.97;;;30.40;35.79
35989;BME280;22064;42.672;23.282;2023-08-20T10:42:27;94909.19;;;30.49;35.65
35989;BME280;22064;42.672;23.282;2023-08-20T10:45:05;94902.81;;;30.57;35.64
35989;BME280;22064;42.672;23.282;2023-08-20T10:47:43;94900.13;;;30.57;35.86
35989;BME280;22064;42.672;23.282;2023-08-20T10:50:19;94905.31;;;30.47;35.29
35989;BME280;22064;42.672;23.282;2023-08-20T10:52:55;94895.50;;;30.58;34.97
35989;BME280;22064;42.672;23.282;2023-08-20T10:55:26;94879.28;;;30.77;34.81
35989;BME280;22064;42.672;23.282;2023-08-20T10:57:56;94875.81;;;31.11;34.25
35989;BME280;22064;42.672;23.282;2023-08-20T11:00:29;94888.75;;;31.32;35.00
35989;BME280;22064;42.672;23.282;2023-08-20T11:03:02;94877.94;;;31.28;34.94
35989;BME280;22064;42.672;23.282;2023-08-20T11:05:30;94883.47;;;31.39;34.71
35989;BME280;22064;42.672;23.282;2023-08-20T11:08:02;94877.22;;;31.31;34.54
35989;BME280;22064;42.672;23.282;2023-08-20T11:10:33;94883.97;;;31.18;34.64
35989;BME280;22064;42.672;23.282;2023-08-20T11:13:00;94881.28;;;31.51;33.72
35989;BME280;22064;42.672;23.282;2023-08-20T11:15:30;94878.25;;;31.57;34.04
35989;BME280;22064;42.672;23.282;2023-08-20T11:18:04;94868.28;;;31.61;33.84
35989;BME280;22064;42.672;23.282;2023-08-20T11:20:37;94876.97;;;31.84;32.90
35989;BME280;22064;42.672;23.282;2023-08-20T11:23:06;94868.38;;;32.16;32.60
35989;BME280;22064;42.672;23.282;2023-08-20T11:25:34;94878.81;;;31.80;32.52
35989;BME280;22064;42.672;23.282;2023-08-20T11:28:12;94873.13;;;31.44;33.14
35989;BME280;22064;42.672;23.282;2023-08-20T11:30:40;94868.81;;;31.36;33.61
35989;BME280;22064;42.672;23.282;2023-08-20T11:33:13;94862.00;;;31.46;33.54
35989;BME280;22064;42.672;23.282;2023-08-20T11:35:42;94859.13;;;31.69;33.39
35989;BME280;22064;42.672;23.282;2023-08-20T11:38:10;94870.69;;;31.73;33.31
35989;BME280;22064;42.672;23.282;2023-08-20T11:40:42;94861.69;;;31.99;33.08
35989;BME280;22064;42.672;23.282;2023-08-20T11:43:10;94864.09;;;32.11;32.99
35989;BME280;22064;42.672;23.282;2023-08-20T11:45:50;94861.31;;;32.56;32.89
35989;BME280;22064;42.672;23.282;2023-08-20T11:48:22;94826.16;;;32.34;33.07
35989;BME280;22064;42.672;23.282;2023-08-20T11:50:57;94854.28;;;32.40;32.96
35989;BME280;22064;42.672;23.282;2023-08-20T11:53:28;94851.31;;;32.56;32.37
35989;BME280;22064;42.672;23.282;2023-08-20T11:55:56;94866.16;;;33.05;31.92
35989;BME280;22064;42.672;23.282;2023-08-20T11:58:24;94855.41;;;33.09;31.31
35989;BME280;22064;42.672;23.282;2023-08-20T12:00:56;94850.81;;;33.27;31.16
35989;BME280;22064;42.672;23.282;2023-08-20T12:03:32;94845.09;;;33.57;30.85
35989;BME280;22064;42.672;23.282;2023-08-20T12:08:47;94845.88;;;33.87;30.35
35989;BME280;22064;42.672;23.282;2023-08-20T12:11:15;94845.88;;;34.01;30.70
35989;BME280;22064;42.672;23.282;2023-08-20T12:13:47;94849.34;;;34.05;30.00
35989;BME280;22064;42.672;23.282;2023-08-20T12:16:15;94845.88;;;33.83;29.96
35989;BME280;22064;42.672;23.282;2023-08-20T12:18:47;94833.91;;;33.77;30.29
35989;BME280;22064;42.672;23.282;2023-08-20T12:21:14;94837.78;;;33.94;30.39
35989;BME280;22064;42.672;23.282;2023-08-20T12:23:43;94833.53;;;34.18;29.83
35989;BME280;22064;42.672;23.282;2023-08-20T12:26:11;94830.81;;;34.25;30.01
35989;BME280;22064;42.672;23.282;2023-08-20T12:28:38;94833.13;;;34.19;30.58
35989;BME280;22064;42.672;23.282;2023-08-20T12:31:07;94825.34;;;34.57;30.17
35989;BME280;22064;42.672;23.282;2023-08-20T12:33:33;94829.94;;;34.71;30.17
35989;BME280;22064;42.672;23.282;2023-08-20T12:36:01;94822.06;;;35.05;29.48
35989;BME280;22064;42.672;23.282;2023-08-20T12:38:34;94824.59;;;34.46;30.45
35989;BME280;22064;42.672;23.282;2023-08-20T12:41:01;94830.78;;;34.43;30.81
35989;BME280;22064;42.672;23.282;2023-08-20T12:43:28;94818.84;;;34.22;31.55
35989;BME280;22064;42.672;23.282;2023-08-20T12:45:56;94823.09;;;34.20;31.21
35989;BME280;22064;42.672;23.282;2023-08-20T12:48:24;94821.19;;;34.13;31.18
35989;BME280;22064;42.672;23.282;2023-08-20T12:50:50;94813.84;;;34.10;30.87
35989;BME280;22064;42.672;23.282;2023-08-20T12:53:16;94818.00;;;34.54;30.61
35989;BME280;22064;42.672;23.282;2023-08-20T12:55:49;94807.66;;;34.24;30.76
35989;BME280;22064;42.672;23.282;2023-08-20T12:58:18;94806.88;;;33.98;31.26
35989;BME280;22064;42.672;23.282;2023-08-20T13:00:45;94810.34;;;33.95;31.18
35989;BME280;22064;42.672;23.282;2023-08-20T13:03:15;94811.16;;;33.82;31.66
35989;BME280;22064;42.672;23.282;2023-08-20T13:05:42;94822.34;;;33.80;31.51
35989;BME280;22064;42.672;23.282;2023-08-20T13:08:10;94805.34;;;34.22;30.88
35989;BME280;22064;42.672;23.282;2023-08-20T13:10:40;94809.00;;;34.82;30.75